sensor_id;sensor_type;location;lat;lon;timestamp;temperature;humidity
5176;DHT22;2607;50.934;6.934;2023-03-31T00:01:59;11.90;99.90
5176;DHT22;2607;50.934;6.934;2023-03-31T00:04:26;11.80;99.90
5176;DHT22;2607;50.934;6.934;2023-03-31T00:06:52;11.90;99.90
5176;DHT22;2607;50.934;6.934;2023-03-31T00:09:19;11.90;99.90
5176;DHT22;2607;50.934;6.934;2023-03-31T00:11:50;11.90;99.90
5176;DHT22;2607;50.934;6.934;2023-03-31T00:14:17;11.90;99.90
5176;DHT22;2607;50.934;6.934;2023-03-31T00:16:43;11.90;99.90
5176;DHT22;2607;50.934;6.934;2023-03-31T00:19:10;11.80;99.90
5176;DHT22;2607;50.934;6.934;2023-03-31T00:21:46;11.80;99.90
5176;DHT22;2607;50.934;6.934;2023-03-31T00:24:12;11.80;99.90
5176;DHT22;2607;50.934;6.934;2023-03-31T00:26:38;11.80;99.90
5176;DHT22;2607;50.934;6.934;2023-03-31T00:29:06;11.80;99.90
5176;DHT22;2607;50.934;6.934;2023-03-31T00:31:32;11.80;99.90
5176;DHT22;2607;50.934;6.934;2023-03-31T00:33:58;11.90;99.90
5176;DHT22;2607;50.934;6.934;2023-03-31T00:36:24;11.90;99.90
5176;DHT22;2607;50.934;6.934;2023-03-31T00:38:57;11.80;99.90
5176;DHT22;2607;50.934;6.934;2023-03-31T00:41:24;11.80;99.90
5176;DHT22;2607;50.934;6.934;2023-03-31T00:49:27;11.80;99.90
5176;DHT22;2607;50.934;6.934;2023-03-31T00:51:59;11.80;99.90
5176;DHT22;2607;50.934;6.934;2023-03-31T00:54:27;11.80;99.90
5176;DHT22;2607;50.934;6.934;2023-03-31T00:56:55;11.80;99.90
5176;DHT22;2607;50.934;6.934;2023-03-31T00:59:26;11.80;99.90
5176;DHT22;2607;50.934;6.934;2023-03-31T01:01:53;11.80;99.90
5176;DHT22;2607;50.934;6.934;2023-03-31T01:04:19;11.80;99.90
5176;DHT22;2607;50.934;6.934;2023-03-31T01:07:15;11.80;99.90
5176;DHT22;2607;50.934;6.934;2023-03-31T01:09:44;11.80;99.90
5176;DHT22;2607;50.934;6.934;2023-03-31T01:12:13;11.70;99.90
5176;DHT22;2607;50.934;6.934;2023-03-31T01:14:40;11.70;99.90
5176;DHT22;2607;50.934;6.934;2023-03-31T01:17:05;11.70;99.90
5176;DHT22;2607;50.934;6.934;2023-03-31T01:22:39;11.70;99.90
5176;DHT22;2607;50.934;6.934;2023-03-31T01:28:30;11.70;99.90
5176;DHT22;2607;50.934;6.934;2023-03-31T01:34:22;11.70;99.90
5176;DHT22;2607;50.934;6.934;2023-03-31T01:37:12;11.70;99.90
5176;DHT22;2607;50.934;6.934;2023-03-31T01:39:52;11.60;99.90
5176;DHT22;2607;50.934;6.934;2023-03-31T01:42:38;11.60;99.90
5176;DHT22;2607;50.934;6.934;2023-03-31T01:51:01;11.60;99.90
5176;DHT22;2607;50.934;6.934;2023-03-31T01:53:54;11.70;99.90
5176;DHT22;2607;50.934;6.934;2023-03-31T01:56:30;11.70;99.90
5176;DHT22;2607;50.934;6.934;2023-03-31T02:04:47;11.70;99.90
5176;DHT22;2607;50.934;6.934;2023-03-31T02:07:18;11.70;99.90
5176;DHT22;2607;50.934;6.934;2023-03-31T02:09:50;11.70;99.90
5176;DHT22;2607;50.934;6.934;2023-03-31T02:12:19;11.70;99.90
5176;DHT22;2607;50.934;6.934;2023-03-31T02:14:46;11.70;99.90
5176;DHT22;2607;50.934;6.934;2023-03-31T02:17:17;11.70;99.90
5176;DHT22;2607;50.934;6.934;2023-03-31T02:19:45;11.70;99.90
5176;DHT22;2607;50.934;6.934;2023-03-31T02:22:13;11.70;99.90
5176;DHT22;2607;50.934;6.934;2023-03-31T02:24:42;11.70;99.90
5176;DHT22;2607;50.934;6.934;2023-03-31T02:27:17;11.70;99.90
5176;DHT22;2607;50.934;6.934;2023-03-31T02:29:44;11.70;99.90
5176;DHT22;2607;50.934;6.934;2023-03-31T02:32:33;11.70;99.90
5176;DHT22;2607;50.934;6.934;2023-03-31T02:35:00;11.70;99.90
5176;DHT22;2607;50.934;6.934;2023-03-31T02:37:27;11.70;99.90
5176;DHT22;2607;50.934;6.934;2023-03-31T02:39:55;11.60;99.90
5176;DHT22;2607;50.934;6.934;2023-03-31T02:42:21;11.70;99.90
5176;DHT22;2607;50.934;6.934;2023-03-31T02:44:47;11.60;99.90
5176;DHT22;2607;50.934;6.934;2023-03-31T02:47:14;11.60;99.90
5176;DHT22;2607;50.934;6.934;2023-03-31T02:49:45;11.60;99.90
5176;DHT22;2607;50.934;6.934;2023-03-31T03:01:46;11.60;99.90
5176;DHT22;2607;50.934;6.934;2023-03-31T03:04:08;11.60;99.90
5176;DHT22;2607;50.934;6.934;2023-03-31T03:15:44;11.50;99.90
5176;DHT22;2607;50.934;6.934;2023-03-31T03:18:11;11.50;99.90
5176;DHT22;2607;50.934;6.934;2023-03-31T03:20:38;11.50;99.90
5176;DHT22;2607;50.934;6.934;2023-03-31T03:23:04;11.50;99.90
5176;DHT22;2607;50.934;6.934;2023-03-31T03:25:30;11.50;99.90
5176;DHT22;2607;50.934;6.934;2023-03-31T03:27:56;11.40;99.90
5176;DHT22;2607;50.934;6.934;2023-03-31T03:30:21;11.40;99.90
5176;DHT22;2607;50.934;6.934;2023-03-31T03:32:47;11.50;99.90
5176;DHT22;2607;50.934;6.934;2023-03-31T03:35:12;11.40;99.90
5176;DHT22;2607;50.934;6.934;2023-03-31T03:37:38;11.50;99.90
5176;DHT22;2607;50.934;6.934;2023-03-31T03:40:04;11.50;99.90
5176;DHT22;2607;50.934;6.934;2023-03-31T03:42:31;11.50;99.90
5176;DHT22;2607;50.934;6.934;2023-03-31T03:44:57;11.50;99.90
5176;DHT22;2607;50.934;6.934;2023-03-31T03:47:22;11.50;99.90
5176;DHT22;2607;50.934;6.934;2023-03-31T03:49:48;11.40;99.90
5176;DHT22;2607;50.934;6.934;2023-03-31T03:52:14;11.50;99.90
5176;DHT22;2607;50.934;6.934;2023-03-31T03:54:40;11.40;99.90
5176;DHT22;2607;50.934;6.934;2023-03-31T03:57:05;11.50;99.90
5176;DHT22;2607;50.934;6.934;2023-03-31T03:59:31;11.40;99.90
5176;DHT22;2607;50.934;6.934;2023-03-31T04:01:57;11.50;99.90
5176;DHT22;2607;50.934;6.934;2023-03-31T04:04:23;11.40;99.90
5176;DHT22;2607;50.934;6.934;2023-03-31T04:06:49;11.40;99.90
5176;DHT22;2607;50.934;6.934;2023-03-31T04:09:15;11.40;99.90
5176;DHT22;2607;50.934;6.934;2023-03-31T04:11:40;11.40;99.90
5176;DHT22;2607;50.934;6.934;2023-03-31T04:14:06;11.40;99.90
5176;DHT22;2607;50.934;6.934;2023-03-31T04:16:32;11.40;99.90
5176;DHT22;2607;50.934;6.934;2023-03-31T04:18:58;11.40;99.90
5176;DHT22;2607;50.934;6.934;2023-03-31T04:21:28;11.40;99.90
5176;DHT22;2607;50.934;6.934;2023-03-31T04:23:55;11.30;99.90
5176;DHT22;2607;50.934;6.934;2023-03-31T04:26:28;11.30;99.90
5176;DHT22;2607;50.934;6.934;2023-03-31T04:28:56;11.40;99.90
5176;DHT22;2607;50.934;6.934;2023-03-31T04:31:25;11.30;99.90
5176;DHT22;2607;50.934;6.934;2023-03-31T04:33:54;11.40;99.90
5176;DHT22;2607;50.934;6.934;2023-03-31T04:36:21;11.30;99.90
5176;DHT22;2607;50.934;6.934;2023-03-31T04:38:48;11.40;99.90
5176;DHT22;2607;50.934;6.934;2023-03-31T04:41:21;11.30;99.90
5176;DHT22;2607;50.934;6.934;2023-03-31T04:43:47;11.30;99.90
5176;DHT22;2607;50.934;6.934;2023-03-31T04:46:12;11.30;99.90
5176;DHT22;2607;50.934;6.934;2023-03-31T04:48:38;11.30;99.90
5176;DHT22;2607;50.934;6.934;2023-03-31T04:51:04;11.30;99.90
5176;DHT22;2607;50.934;6.934;2023-03-31T04:53:30;11.30;99.90
5176;DHT22;2607;50.934;6.934;2023-03-31T04:55:56;11.30;99.90
5176;DHT22;2607;50.934;6.934;2023-03-31T04:58:21;11.20;99.90
5176;DHT22;2607;50.934;6.934;2023-03-31T05:00:47;11.20;99.90
5176;DHT22;2607;50.934;6.934;2023-03-31T05:03:13;11.20;99.90
5176;DHT22;2607;50.934;6.934;2023-03-31T05:05:38;11.20;99.90
5176;DHT22;2607;50.934;6.934;2023-03-31T05:08:04;11.20;99.90
5176;DHT22;2607;50.934;6.934;2023-03-31T05:10:30;11.20;99.90
5176;DHT22;2607;50.934;6.934;2023-03-31T05:12:56;11.20;99.90
5176;DHT22;2607;50.934;6.934;2023-03-31T05:15:22;11.20;99.90
5176;DHT22;2607;50.934;6.934;2023-03-31T05:17:51;11.20;99.90
5176;DHT22;2607;50.934;6.934;2023-03-31T05:20:18;11.20;99.90
5176;DHT22;2607;50.934;6.934;2023-03-31T05:22:44;11.20;99.90
5176;DHT22;2607;50.934;6.934;2023-03-31T05:25:11;11.20;99.90
5176;DHT22;2607;50.934;6.934;2023-03-31T05:27:43;11.20;99.90
5176;DHT22;2607;50.934;6.934;2023-03-31T05:30:09;11.20;99.90
5176;DHT22;2607;50.934;6.934;2023-03-31T05:32:35;11.10;99.90
5176;DHT22;2607;50.934;6.934;2023-03-31T05:35:01;11.20;99.90
5176;DHT22;2607;50.934;6.934;2023-03-31T05:37:26;11.10;99.90
5176;DHT22;2607;50.934;6.934;2023-03-31T05:39:52;11.20;99.90
5176;DHT22;2607;50.934;6.934;2023-03-31T05:42:18;11.20;99.90
5176;DHT22;2607;50.934;6.934;2023-03-31T05:44:44;11.20;99.90
5176;DHT22;2607;50.934;6.934;2023-03-31T05:47:10;11.20;99.90
5176;DHT22;2607;50.934;6.934;2023-03-31T05:49:36;11.20;99.90
5176;DHT22;2607;50.934;6.934;2023-03-31T05:52:06;11.20;99.90
5176;DHT22;2607;50.934;6.934;2023-03-31T05:54:32;11.20;99.90
5176;DHT22;2607;50.934;6.934;2023-03-31T05:56:58;11.20;99.90
5176;DHT22;2607;50.934;6.934;2023-03-31T05:59:24;11.20;99.90
5176;DHT22;2607;50.934;6.934;2023-03-31T06:01:49;11.20;99.90
5176;DHT22;2607;50.934;6.934;2023-03-31T06:04:15;11.20;99.90
5176;DHT22;2607;50.934;6.934;2023-03-31T06:06:41;11.20;99.90
5176;DHT22;2607;50.934;6.934;2023-03-31T06:09:07;11.20;99.90
5176;DHT22;2607;50.934;6.934;2023-03-31T06:11:33;11.20;99.90
5176;DHT22;2607;50.934;6.934;2023-03-31T06:13:58;11.20;99.90
5176;DHT22;2607;50.934;6.934;2023-03-31T06:16:24;11.20;99.90
5176;DHT22;2607;50.934;6.934;2023-03-31T06:18:50;11.20;99.90
5176;DHT22;2607;50.934;6.934;2023-03-31T06:21:18;11.20;99.90
5176;DHT22;2607;50.934;6.934;2023-03-31T06:23:44;11.10;99.90
5176;DHT22;2607;50.934;6.934;2023-03-31T06:26:12;11.10;99.90
5176;DHT22;2607;50.934;6.934;2023-03-31T06:28:38;11.20;99.90
5176;DHT22;2607;50.934;6.934;2023-03-31T06:31:06;11.10;99.90
5176;DHT22;2607;50.934;6.934;2023-03-31T06:33:33;11.20;99.90
5176;DHT22;2607;50.934;6.934;2023-03-31T06:35:59;11.10;99.90
5176;DHT22;2607;50.934;6.934;2023-03-31T06:38:27;11.10;99.90
5176;DHT22;2607;50.934;6.934;2023-03-31T06:40:53;11.10;99.90
5176;DHT22;2607;50.934;6.934;2023-03-31T06:43:18;11.10;99.90
5176;DHT22;2607;50.934;6.934;2023-03-31T06:45:45;11.00;99.90
5176;DHT22;2607;50.934;6.934;2023-03-31T06:48:10;11.00;99.90
5176;DHT22;2607;50.934;6.934;2023-03-31T06:50:37;11.10;99.90
5176;DHT22;2607;50.934;6.934;2023-03-31T06:53:03;11.10;99.90
5176;DHT22;2607;50.934;6.934;2023-03-31T06:55:29;11.10;99.90
5176;DHT22;2607;50.934;6.934;2023-03-31T06:57:55;11.10;99.90
5176;DHT22;2607;50.934;6.934;2023-03-31T07:00:21;11.10;99.90
5176;DHT22;2607;50.934;6.934;2023-03-31T07:02:46;11.20;99.90
5176;DHT22;2607;50.934;6.934;2023-03-31T07:05:12;11.20;99.90
5176;DHT22;2607;50.934;6.934;2023-03-31T07:07:37;11.30;99.90
5176;DHT22;2607;50.934;6.934;2023-03-31T07:10:03;11.30;99.90
5176;DHT22;2607;50.934;6.934;2023-03-31T07:12:32;11.30;99.90
5176;DHT22;2607;50.934;6.934;2023-03-31T07:14:58;11.40;99.90
5176;DHT22;2607;50.934;6.934;2023-03-31T07:17:23;11.40;99.90
5176;DHT22;2607;50.934;6.934;2023-03-31T07:19:50;11.40;99.90
5176;DHT22;2607;50.934;6.934;2023-03-31T07:22:15;11.50;99.90
5176;DHT22;2607;50.934;6.934;2023-03-31T07:24:41;11.50;99.90
5176;DHT22;2607;50.934;6.934;2023-03-31T07:27:06;11.60;99.90
5176;DHT22;2607;50.934;6.934;2023-03-31T07:29:32;11.60;99.90
5176;DHT22;2607;50.934;6.934;2023-03-31T07:31:58;11.70;99.90
5176;DHT22;2607;50.934;6.934;2023-03-31T07:34:23;11.70;99.90
5176;DHT22;2607;50.934;6.934;2023-03-31T07:36:49;11.70;99.90
5176;DHT22;2607;50.934;6.934;2023-03-31T07:39:16;11.80;99.90
5176;DHT22;2607;50.934;6.934;2023-03-31T07:41:41;11.80;99.90
5176;DHT22;2607;50.934;6.934;2023-03-31T07:44:07;11.80;99.90
5176;DHT22;2607;50.934;6.934;2023-03-31T07:46:34;11.80;99.90
5176;DHT22;2607;50.934;6.934;2023-03-31T07:48:59;11.90;99.90
5176;DHT22;2607;50.934;6.934;2023-03-31T07:51:27;11.90;99.90
5176;DHT22;2607;50.934;6.934;2023-03-31T07:53:53;12.00;99.90
5176;DHT22;2607;50.934;6.934;2023-03-31T07:56:23;12.10;99.90
5176;DHT22;2607;50.934;6.934;2023-03-31T07:58:49;12.10;99.90
5176;DHT22;2607;50.934;6.934;2023-03-31T08:01:18;12.10;99.90
5176;DHT22;2607;50.934;6.934;2023-03-31T08:03:46;12.10;99.90
5176;DHT22;2607;50.934;6.934;2023-03-31T08:06:17;12.20;99.90
5176;DHT22;2607;50.934;6.934;2023-03-31T08:08:42;12.30;99.90
5176;DHT22;2607;50.934;6.934;2023-03-31T08:11:08;12.40;99.90
5176;DHT22;2607;50.934;6.934;2023-03-31T08:13:35;12.50;99.90
5176;DHT22;2607;50.934;6.934;2023-03-31T08:16:00;12.50;99.90
5176;DHT22;2607;50.934;6.934;2023-03-31T08:18:26;12.60;99.90
5176;DHT22;2607;50.934;6.934;2023-03-31T08:20:51;12.60;99.90
5176;DHT22;2607;50.934;6.934;2023-03-31T08:23:17;12.60;99.90
5176;DHT22;2607;50.934;6.934;2023-03-31T08:25:42;12.70;99.90
5176;DHT22;2607;50.934;6.934;2023-03-31T08:28:08;12.70;99.90
5176;DHT22;2607;50.934;6.934;2023-03-31T08:30:39;12.80;99.90
5176;DHT22;2607;50.934;6.934;2023-03-31T08:33:06;12.80;99.90
5176;DHT22;2607;50.934;6.934;2023-03-31T08:35:33;12.90;99.90
5176;DHT22;2607;50.934;6.934;2023-03-31T08:37:59;12.90;99.90
5176;DHT22;2607;50.934;6.934;2023-03-31T08:40:27;12.90;99.90
5176;DHT22;2607;50.934;6.934;2023-03-31T08:42:56;12.90;99.90
5176;DHT22;2607;50.934;6.934;2023-03-31T08:45:34;12.90;99.90
5176;DHT22;2607;50.934;6.934;2023-03-31T08:48:05;13.00;99.90
5176;DHT22;2607;50.934;6.934;2023-03-31T08:50:44;13.00;99.90
5176;DHT22;2607;50.934;6.934;2023-03-31T08:53:50;13.00;99.90
5176;DHT22;2607;50.934;6.934;2023-03-31T08:56:16;13.10;99.90
5176;DHT22;2607;50.934;6.934;2023-03-31T08:58:46;13.10;99.90
5176;DHT22;2607;50.934;6.934;2023-03-31T09:07:06;13.10;99.90
5176;DHT22;2607;50.934;6.934;2023-03-31T09:09:49;13.20;99.90
5176;DHT22;2607;50.934;6.934;2023-03-31T09:12:22;13.20;99.90
5176;DHT22;2607;50.934;6.934;2023-03-31T09:14:59;13.30;99.90
5176;DHT22;2607;50.934;6.934;2023-03-31T09:17:42;13.40;99.90
5176;DHT22;2607;50.934;6.934;2023-03-31T09:20:18;13.50;99.90
5176;DHT22;2607;50.934;6.934;2023-03-31T09:22:48;13.70;99.90
5176;DHT22;2607;50.934;6.934;2023-03-31T09:25:20;13.70;99.90
5176;DHT22;2607;50.934;6.934;2023-03-31T09:27:49;13.80;99.90
5176;DHT22;2607;50.934;6.934;2023-03-31T09:30:26;13.90;99.90
5176;DHT22;2607;50.934;6.934;2023-03-31T09:33:03;13.90;99.90
5176;DHT22;2607;50.934;6.934;2023-03-31T09:35:34;14.00;99.90
5176;DHT22;2607;50.934;6.934;2023-03-31T09:37:59;14.00;99.90
5176;DHT22;2607;50.934;6.934;2023-03-31T09:40:27;14.10;99.90
5176;DHT22;2607;50.934;6.934;2023-03-31T09:42:59;14.00;99.90
5176;DHT22;2607;50.934;6.934;2023-03-31T09:45:26;14.00;99.90
5176;DHT22;2607;50.934;6.934;2023-03-31T09:47:56;14.00;99.90
5176;DHT22;2607;50.934;6.934;2023-03-31T09:50:23;14.00;99.90
5176;DHT22;2607;50.934;6.934;2023-03-31T09:52:56;13.80;99.90
5176;DHT22;2607;50.934;6.934;2023-03-31T09:55:39;13.70;99.90
5176;DHT22;2607;50.934;6.934;2023-03-31T09:58:11;13.70;99.90
5176;DHT22;2607;50.934;6.934;2023-03-31T10:00:40;13.60;99.90
5176;DHT22;2607;50.934;6.934;2023-03-31T10:03:09;13.60;99.90
5176;DHT22;2607;50.934;6.934;2023-03-31T10:05:38;13.60;99.90
5176;DHT22;2607;50.934;6.934;2023-03-31T10:13:49;13.70;99.90
5176;DHT22;2607;50.934;6.934;2023-03-31T10:16:41;13.80;99.90
5176;DHT22;2607;50.934;6.934;2023-03-31T10:19:13;13.90;99.90
5176;DHT22;2607;50.934;6.934;2023-03-31T10:21:45;14.00;99.90
5176;DHT22;2607;50.934;6.934;2023-03-31T10:24:11;14.10;99.90
5176;DHT22;2607;50.934;6.934;2023-03-31T10:26:37;14.20;99.90
5176;DHT22;2607;50.934;6.934;2023-03-31T10:29:11;14.20;99.90
5176;DHT22;2607;50.934;6.934;2023-03-31T10:31:38;14.20;99.90
5176;DHT22;2607;50.934;6.934;2023-03-31T10:34:08;14.20;99.90
5176;DHT22;2607;50.934;6.934;2023-03-31T10:36:37;14.30;99.90
5176;DHT22;2607;50.934;6.934;2023-03-31T10:39:05;14.40;99.90
5176;DHT22;2607;50.934;6.934;2023-03-31T10:41:31;14.40;99.90
5176;DHT22;2607;50.934;6.934;2023-03-31T10:43:59;14.50;99.90
5176;DHT22;2607;50.934;6.934;2023-03-31T10:51:54;14.60;99.90
5176;DHT22;2607;50.934;6.934;2023-03-31T10:54:20;14.60;99.90
5176;DHT22;2607;50.934;6.934;2023-03-31T10:56:51;14.60;99.90
5176;DHT22;2607;50.934;6.934;2023-03-31T11:08:25;14.80;99.90
5176;DHT22;2607;50.934;6.934;2023-03-31T11:13:56;14.90;99.20
5176;DHT22;2607;50.934;6.934;2023-03-31T11:16:45;14.90;99.80
5176;DHT22;2607;50.934;6.934;2023-03-31T11:19:46;14.90;99.90
5176;DHT22;2607;50.934;6.934;2023-03-31T11:22:33;14.90;99.90
5176;DHT22;2607;50.934;6.934;2023-03-31T11:25:12;14.90;99.90
5176;DHT22;2607;50.934;6.934;2023-03-31T11:41:12;14.70;99.90
5176;DHT22;2607;50.934;6.934;2023-03-31T11:46:20;14.60;99.90
5176;DHT22;2607;50.934;6.934;2023-03-31T11:49:10;14.60;99.90
5176;DHT22;2607;50.934;6.934;2023-03-31T11:51:53;14.60;99.90
5176;DHT22;2607;50.934;6.934;2023-03-31T11:55:00;14.60;99.90
5176;DHT22;2607;50.934;6.934;2023-03-31T12:00:12;14.60;99.90
5176;DHT22;2607;50.934;6.934;2023-03-31T12:05:26;14.60;99.90
5176;DHT22;2607;50.934;6.934;2023-03-31T12:08:02;14.60;99.90
5176;DHT22;2607;50.934;6.934;2023-03-31T12:13:43;14.40;99.90
5176;DHT22;2607;50.934;6.934;2023-03-31T12:16:14;14.30;99.90
5176;DHT22;2607;50.934;6.934;2023-03-31T12:21:28;14.40;99.90
5176;DHT22;2607;50.934;6.934;2023-03-31T12:23:55;14.50;99.90
5176;DHT22;2607;50.934;6.934;2023-03-31T12:29:04;14.60;99.90
5176;DHT22;2607;50.934;6.934;2023-03-31T12:31:32;14.70;99.90
5176;DHT22;2607;50.934;6.934;2023-03-31T12:34:02;14.80;99.90
5176;DHT22;2607;50.934;6.934;2023-03-31T12:36:48;14.90;99.90
5176;DHT22;2607;50.934;6.934;2023-03-31T12:42:37;14.90;99.90
5176;DHT22;2607;50.934;6.934;2023-03-31T12:50:35;14.80;99.90
5176;DHT22;2607;50.934;6.934;2023-03-31T12:53:30;14.70;99.90
5176;DHT22;2607;50.934;6.934;2023-03-31T12:55:57;14.60;99.90
5176;DHT22;2607;50.934;6.934;2023-03-31T13:01:20;14.70;99.90
5176;DHT22;2607;50.934;6.934;2023-03-31T13:03:51;14.70;99.90
5176;DHT22;2607;50.934;6.934;2023-03-31T13:17:22;14.30;99.90
5176;DHT22;2607;50.934;6.934;2023-03-31T13:19:48;14.30;99.90
5176;DHT22;2607;50.934;6.934;2023-03-31T13:22:30;14.30;99.90
5176;DHT22;2607;50.934;6.934;2023-03-31T13:27:50;14.20;99.90
5176;DHT22;2607;50.934;6.934;2023-03-31T13:36:37;14.40;99.90
5176;DHT22;2607;50.934;6.934;2023-03-31T13:42:22;14.40;99.90
5176;DHT22;2607;50.934;6.934;2023-03-31T13:45:22;14.40;99.90
5176;DHT22;2607;50.934;6.934;2023-03-31T13:48:02;14.50;99.90
5176;DHT22;2607;50.934;6.934;2023-03-31T14:06:57;14.80;99.90
5176;DHT22;2607;50.934;6.934;2023-03-31T14:09:30;14.90;99.90
5176;DHT22;2607;50.934;6.934;2023-03-31T14:12:00;15.00;99.90
5176;DHT22;2607;50.934;6.934;2023-03-31T14:14:42;15.00;99.90
5176;DHT22;2607;50.934;6.934;2023-03-31T14:17:09;15.00;99.90
5176;DHT22;2607;50.934;6.934;2023-03-31T14:27:58;14.70;98.80
5176;DHT22;2607;50.934;6.934;2023-03-31T14:30:36;14.70;98.60
5176;DHT22;2607;50.934;6.934;2023-03-31T14:36:22;14.60;99.40
5176;DHT22;2607;50.934;6.934;2023-03-31T14:38:45;14.60;99.20
5176;DHT22;2607;50.934;6.934;2023-03-31T14:41:18;14.60;98.60
5176;DHT22;2607;50.934;6.934;2023-03-31T14:43:50;14.60;98.20
5176;DHT22;2607;50.934;6.934;2023-03-31T14:46:20;14.70;97.70
5176;DHT22;2607;50.934;6.934;2023-03-31T14:48:48;14.70;97.80
5176;DHT22;2607;50.934;6.934;2023-03-31T14:51:15;14.70;97.90
5176;DHT22;2607;50.934;6.934;2023-03-31T14:53:41;14.70;97.80
5176;DHT22;2607;50.934;6.934;2023-03-31T14:56:18;14.70;98.00
5176;DHT22;2607;50.934;6.934;2023-03-31T14:58:50;14.70;98.30
5176;DHT22;2607;50.934;6.934;2023-03-31T15:01:22;14.70;98.00
5176;DHT22;2607;50.934;6.934;2023-03-31T15:03:51;14.70;97.30
5176;DHT22;2607;50.934;6.934;2023-03-31T15:06:17;14.60;97.40
5176;DHT22;2607;50.934;6.934;2023-03-31T15:08:43;14.60;98.00
5176;DHT22;2607;50.934;6.934;2023-03-31T15:11:14;14.50;97.70
5176;DHT22;2607;50.934;6.934;2023-03-31T15:13:44;14.50;97.80
5176;DHT22;2607;50.934;6.934;2023-03-31T15:16:28;14.60;97.30
5176;DHT22;2607;50.934;6.934;2023-03-31T15:18:56;14.50;97.20
5176;DHT22;2607;50.934;6.934;2023-03-31T15:21:24;14.40;97.70
5176;DHT22;2607;50.934;6.934;2023-03-31T15:23:51;14.40;98.10
5176;DHT22;2607;50.934;6.934;2023-03-31T15:26:19;14.40;98.00
5176;DHT22;2607;50.934;6.934;2023-03-31T15:28:53;14.40;97.70
5176;DHT22;2607;50.934;6.934;2023-03-31T15:31:20;14.30;98.10
5176;DHT22;2607;50.934;6.934;2023-03-31T15:33:46;14.30;98.50
5176;DHT22;2607;50.934;6.934;2023-03-31T15:36:12;14.40;98.70
5176;DHT22;2607;50.934;6.934;2023-03-31T15:38:39;14.30;99.20
5176;DHT22;2607;50.934;6.934;2023-03-31T15:41:11;14.30;99.90
5176;DHT22;2607;50.934;6.934;2023-03-31T15:46:10;14.20;99.90
5176;DHT22;2607;50.934;6.934;2023-03-31T15:48:37;14.20;99.90
5176;DHT22;2607;50.934;6.934;2023-03-31T15:51:24;14.10;99.90
5176;DHT22;2607;50.934;6.934;2023-03-31T15:53:53;14.10;99.90
5176;DHT22;2607;50.934;6.934;2023-03-31T15:58:57;13.90;99.90
5176;DHT22;2607;50.934;6.934;2023-03-31T16:01:26;13.90;99.90
5176;DHT22;2607;50.934;6.934;2023-03-31T16:03:54;13.90;99.90
5176;DHT22;2607;50.934;6.934;2023-03-31T16:06:38;13.80;99.90
5176;DHT22;2607;50.934;6.934;2023-03-31T16:09:08;13.80;99.90
5176;DHT22;2607;50.934;6.934;2023-03-31T16:11:41;13.80;99.90
5176;DHT22;2607;50.934;6.934;2023-03-31T16:14:18;13.70;99.90
5176;DHT22;2607;50.934;6.934;2023-03-31T16:16:47;13.60;99.90
5176;DHT22;2607;50.934;6.934;2023-03-31T16:19:14;13.60;99.90
5176;DHT22;2607;50.934;6.934;2023-03-31T16:21:43;13.50;99.90
5176;DHT22;2607;50.934;6.934;2023-03-31T16:24:12;13.40;99.90
5176;DHT22;2607;50.934;6.934;2023-03-31T16:26:39;13.40;99.90
5176;DHT22;2607;50.934;6.934;2023-03-31T16:29:04;13.30;99.90
5176;DHT22;2607;50.934;6.934;2023-03-31T16:31:36;13.20;99.90
5176;DHT22;2607;50.934;6.934;2023-03-31T16:34:08;13.10;99.90
5176;DHT22;2607;50.934;6.934;2023-03-31T16:36:34;13.00;99.90
5176;DHT22;2607;50.934;6.934;2023-03-31T16:39:01;12.90;99.90
5176;DHT22;2607;50.934;6.934;2023-03-31T16:41:33;12.90;99.90
5176;DHT22;2607;50.934;6.934;2023-03-31T16:44:00;12.90;99.90
5176;DHT22;2607;50.934;6.934;2023-03-31T16:46:25;12.80;99.90
5176;DHT22;2607;50.934;6.934;2023-03-31T16:48:51;12.80;99.90
5176;DHT22;2607;50.934;6.934;2023-03-31T16:51:18;12.80;99.90
5176;DHT22;2607;50.934;6.934;2023-03-31T16:53:44;12.80;99.90
5176;DHT22;2607;50.934;6.934;2023-03-31T16:56:11;12.80;99.90
5176;DHT22;2607;50.934;6.934;2023-03-31T16:58:38;12.80;99.90
5176;DHT22;2607;50.934;6.934;2023-03-31T17:01:05;12.80;99.90
5176;DHT22;2607;50.934;6.934;2023-03-31T17:03:32;12.80;99.90
5176;DHT22;2607;50.934;6.934;2023-03-31T17:06:02;12.80;99.90
5176;DHT22;2607;50.934;6.934;2023-03-31T17:08:28;12.90;99.90
5176;DHT22;2607;50.934;6.934;2023-03-31T17:10:58;12.90;99.90
5176;DHT22;2607;50.934;6.934;2023-03-31T17:13:25;12.90;99.90
5176;DHT22;2607;50.934;6.934;2023-03-31T17:15:51;12.80;99.90
5176;DHT22;2607;50.934;6.934;2023-03-31T17:18:18;12.80;99.90
5176;DHT22;2607;50.934;6.934;2023-03-31T17:20:44;12.80;99.90
5176;DHT22;2607;50.934;6.934;2023-03-31T17:23:10;12.80;99.90
5176;DHT22;2607;50.934;6.934;2023-03-31T17:25:36;12.80;99.90
5176;DHT22;2607;50.934;6.934;2023-03-31T17:28:02;12.70;99.90
5176;DHT22;2607;50.934;6.934;2023-03-31T17:30:29;12.70;99.90
5176;DHT22;2607;50.934;6.934;2023-03-31T17:32:56;12.70;99.90
5176;DHT22;2607;50.934;6.934;2023-03-31T17:35:21;12.70;99.90
5176;DHT22;2607;50.934;6.934;2023-03-31T17:37:48;12.70;99.90
5176;DHT22;2607;50.934;6.934;2023-03-31T17:40:18;12.60;99.90
5176;DHT22;2607;50.934;6.934;2023-03-31T17:42:44;12.60;99.90
5176;DHT22;2607;50.934;6.934;2023-03-31T17:45:11;12.60;99.90
5176;DHT22;2607;50.934;6.934;2023-03-31T17:47:37;12.60;99.90
5176;DHT22;2607;50.934;6.934;2023-03-31T17:50:03;12.60;99.90
5176;DHT22;2607;50.934;6.934;2023-03-31T17:52:29;12.60;99.90
5176;DHT22;2607;50.934;6.934;2023-03-31T17:54:54;12.50;99.90
5176;DHT22;2607;50.934;6.934;2023-03-31T17:57:22;12.50;99.90
5176;DHT22;2607;50.934;6.934;2023-03-31T17:59:47;12.50;99.90
5176;DHT22;2607;50.934;6.934;2023-03-31T18:02:14;12.50;99.90
5176;DHT22;2607;50.934;6.934;2023-03-31T18:04:40;12.50;99.90
5176;DHT22;2607;50.934;6.934;2023-03-31T18:07:06;12.50;99.90
5176;DHT22;2607;50.934;6.934;2023-03-31T18:09:32;12.50;99.90
5176;DHT22;2607;50.934;6.934;2023-03-31T18:11:58;12.50;99.90
5176;DHT22;2607;50.934;6.934;2023-03-31T18:14:24;12.50;99.90
5176;DHT22;2607;50.934;6.934;2023-03-31T18:16:49;12.40;99.90
5176;DHT22;2607;50.934;6.934;2023-03-31T18:19:15;12.50;99.90
5176;DHT22;2607;50.934;6.934;2023-03-31T18:21:41;12.50;99.90
5176;DHT22;2607;50.934;6.934;2023-03-31T18:24:07;12.50;99.90
5176;DHT22;2607;50.934;6.934;2023-03-31T18:26:32;12.50;99.90
5176;DHT22;2607;50.934;6.934;2023-03-31T18:28:58;12.50;99.90
5176;DHT22;2607;50.934;6.934;2023-03-31T18:31:24;12.50;99.90
5176;DHT22;2607;50.934;6.934;2023-03-31T18:33:51;12.50;99.90
5176;DHT22;2607;50.934;6.934;2023-03-31T18:36:20;12.50;99.90
5176;DHT22;2607;50.934;6.934;2023-03-31T18:38:47;12.50;99.90
5176;DHT22;2607;50.934;6.934;2023-03-31T18:41:14;12.50;99.90
5176;DHT22;2607;50.934;6.934;2023-03-31T18:43:40;12.40;99.90
5176;DHT22;2607;50.934;6.934;2023-03-31T18:46:06;12.30;99.90
5176;DHT22;2607;50.934;6.934;2023-03-31T18:48:32;12.30;99.90
5176;DHT22;2607;50.934;6.934;2023-03-31T18:50:59;12.20;99.90
5176;DHT22;2607;50.934;6.934;2023-03-31T18:53:25;12.20;99.90
5176;DHT22;2607;50.934;6.934;2023-03-31T18:55:53;12.10;99.90
5176;DHT22;2607;50.934;6.934;2023-03-31T18:58:19;12.10;99.90
5176;DHT22;2607;50.934;6.934;2023-03-31T19:00:45;12.10;99.90
5176;DHT22;2607;50.934;6.934;2023-03-31T19:03:11;12.00;99.90
5176;DHT22;2607;50.934;6.934;2023-03-31T19:05:36;12.00;99.90
5176;DHT22;2607;50.934;6.934;2023-03-31T19:08:03;12.00;99.90